This is the latest recevied weather packets stored in our database for station/object E22ZMG-3. If no packets are shown the sender has not sent any weather packets the latest 10 day(s).
| Time | Temp. | Humidity | Pressure | Rain* | Wind** | Luminosity | Snow |
|---|---|---|---|---|---|---|---|
| 1777806282 | 38.89° C | 30% | 971 hPa | - | - | 0 W/m² | - |
| 1777805656 | 40° C | 30% | 971 hPa | - | - | 0 W/m² | - |
| 1777805032 | 41.11° C | 27% | 971 hPa | - | - | 0 W/m² | - |
| 1777804406 | 41.67° C | 26% | 971 hPa | - | - | 0 W/m² | - |
| 1777803782 | 40.56° C | 28% | 971 hPa | - | - | 0 W/m² | - |
| 1777803157 | 39.44° C | 29% | 971 hPa | - | - | 0 W/m² | - |
| 1777802532 | 41.67° C | 26% | 971 hPa | - | - | 0 W/m² | - |
| 1777801905 | 41.67° C | 28% | 971 hPa | - | - | 0 W/m² | - |
| 1777801280 | 41.11° C | 27% | 971 hPa | - | - | 0 W/m² | - |
| 1777800655 | 41.67° C | 25% | 971 hPa | - | - | 0 W/m² | - |
| 1777800031 | 41.67° C | 25% | 971 hPa | - | - | 0 W/m² | - |
| 1777799405 | 42.78° C | 23% | 971 hPa | - | - | 0 W/m² | - |
| 1777798781 | 41.67° C | 25% | 971 hPa | - | - | 0 W/m² | - |
| 1777798155 | 41.67° C | 25% | 971 hPa | - | - | 0 W/m² | - |
| 1777797527 | 42.22° C | 25% | 972 hPa | - | - | 0 W/m² | - |
| 1777796898 | 41.67° C | 26% | 972 hPa | - | - | 0 W/m² | - |
| 1777796272 | 41.67° C | 25% | 972 hPa | - | - | 0 W/m² | - |
| 1777795644 | 43.33° C | 23% | 972 hPa | - | - | 0 W/m² | - |
| 1777795019 | 42.78° C | 24% | 972 hPa | - | - | 0 W/m² | - |
| 1777794393 | 42.22° C | 25% | 972 hPa | - | - | 0 W/m² | - |
| 1777793768 | 42.22° C | 26% | 972 hPa | - | - | 0 W/m² | - |
| 1777793143 | 41.67° C | 25% | 973 hPa | - | - | 0 W/m² | - |
| 1777792518 | 41.11° C | 27% | 973 hPa | - | - | 0 W/m² | - |
| 1777791893 | 41.11° C | 26% | 973 hPa | - | - | 0 W/m² | - |
| 1777791464 | 40° C | 28% | 973 hPa | - | - | 0 W/m² | - |
* Rain since midnight (hover to see other rain measurements)
** Current wind speed in m/s (hover to see current wind gust speed)